createdAt,value
2022-09-10T00:01:35.859Z,1.10
2022-09-10T00:04:10.178Z,0.90
2022-09-10T00:06:38.863Z,1.27
2022-09-10T00:09:08.862Z,1.13
2022-09-10T00:11:41.097Z,0.90
2022-09-10T00:14:15.454Z,0.90
2022-09-10T00:16:42.573Z,1.10
2022-09-10T00:19:09.594Z,1.17
2022-09-10T00:21:36.740Z,1.10
2022-09-10T00:24:05.227Z,1.00
2022-09-10T00:26:38.208Z,1.00
2022-09-10T00:29:11.125Z,1.03
2022-09-10T00:31:39.164Z,1.47
2022-09-10T00:34:07.256Z,1.10
2022-09-10T00:36:41.235Z,1.00
2022-09-10T00:39:12.723Z,1.20
2022-09-10T00:41:43.494Z,0.80
2022-09-10T00:44:41.625Z,0.80
2022-09-10T00:47:39.405Z,1.20
2022-09-10T00:50:13.778Z,1.43
2022-09-10T00:52:41.532Z,0.90
2022-09-10T00:55:12.487Z,1.20
2022-09-10T00:57:41.323Z,1.30
2022-09-10T01:00:12.533Z,1.00
2022-09-10T01:02:41.312Z,0.83
2022-09-10T01:05:10.484Z,1.03
2022-09-10T01:07:39.159Z,0.90
2022-09-10T01:10:31.589Z,1.13
2022-09-10T01:13:18.436Z,0.90
2022-09-10T01:16:03.379Z,1.10
2022-09-10T01:18:43.687Z,1.00
2022-09-10T01:21:19.386Z,1.23
2022-09-10T01:24:24.559Z,1.17
2022-09-10T01:27:41.228Z,0.90
2022-09-10T01:30:14.636Z,1.00
2022-09-10T01:33:11.516Z,1.20
2022-09-10T01:35:52.045Z,0.90
2022-09-10T01:38:34.227Z,1.00
2022-09-10T01:41:01.668Z,1.20
2022-09-10T01:43:28.908Z,1.33
2022-09-10T01:46:15.184Z,0.90
2022-09-10T01:48:57.527Z,0.70
2022-09-10T01:51:34.496Z,1.17
2022-09-10T01:54:40.361Z,1.00
2022-09-10T01:57:08.528Z,1.00
2022-09-10T01:59:45.306Z,1.27
2022-09-10T02:02:37.376Z,1.33
2022-09-10T02:05:06.823Z,1.13
2022-09-10T02:07:35.668Z,1.23
2022-09-10T02:10:07.014Z,1.03
2022-09-10T02:12:36.777Z,0.90
2022-09-10T02:15:08.019Z,1.30
2022-09-10T02:17:39.804Z,1.27
2022-09-10T02:20:13.643Z,1.13
2022-09-10T02:22:45.305Z,0.90
2022-09-10T02:25:12.359Z,1.30
2022-09-10T02:27:40.158Z,1.00
2022-09-10T02:30:08.481Z,1.00
2022-09-10T02:32:36.020Z,1.30
2022-09-10T02:35:04.469Z,0.90
2022-09-10T02:37:32.030Z,1.10
2022-09-10T02:40:00.674Z,0.80
2022-09-10T02:42:28.937Z,1.53
2022-09-10T02:44:57.098Z,1.10
2022-09-10T02:47:26.414Z,1.00
2022-09-10T02:49:54.297Z,1.10
2022-09-10T02:52:22.126Z,0.80
2022-09-10T02:54:50.466Z,1.17
2022-09-10T02:57:19.049Z,1.30
2022-09-10T02:59:46.577Z,1.20
2022-09-10T03:02:14.234Z,1.30
2022-09-10T03:04:42.472Z,1.13
2022-09-10T03:07:10.063Z,1.20
2022-09-10T03:09:41.086Z,1.43
2022-09-10T03:12:08.713Z,1.40
2022-09-10T03:14:36.222Z,1.10
2022-09-10T03:17:04.114Z,1.00
2022-09-10T03:19:31.657Z,1.30
2022-09-10T03:21:59.885Z,1.40
2022-09-10T03:24:28.569Z,1.00
2022-09-10T03:26:58.047Z,1.10
2022-09-10T03:29:26.428Z,1.07
2022-09-10T03:31:53.375Z,1.07
2022-09-10T03:34:21.004Z,1.20
2022-09-10T03:36:48.871Z,1.20
2022-09-10T03:39:18.431Z,1.20
2022-09-10T03:41:46.091Z,1.50
2022-09-10T03:44:15.962Z,1.20
2022-09-10T03:46:45.665Z,1.10
2022-09-10T03:49:13.179Z,1.33
2022-09-10T03:51:40.733Z,1.20
2022-09-10T03:54:08.770Z,0.97
2022-09-10T03:56:36.669Z,1.23
2022-09-10T03:59:04.822Z,0.97
2022-09-10T04:01:32.654Z,1.30
2022-09-10T04:04:00.273Z,1.10
2022-09-10T04:06:28.270Z,1.43
2022-09-10T04:08:55.843Z,1.07
2022-09-10T04:11:27.653Z,1.23
2022-09-10T04:13:56.841Z,1.00
2022-09-10T04:16:25.547Z,1.10
2022-09-10T04:18:54.316Z,1.20
2022-09-10T04:21:21.222Z,1.10
2022-09-10T04:23:53.124Z,1.13
2022-09-10T04:26:21.149Z,0.93
2022-09-10T04:28:48.846Z,0.80
2022-09-10T04:31:16.444Z,1.10
2022-09-10T04:33:44.994Z,0.90
2022-09-10T04:36:15.621Z,1.00
2022-09-10T04:38:44.650Z,0.97
2022-09-10T04:41:12.186Z,0.97
2022-09-10T04:43:39.655Z,1.20
2022-09-10T04:46:07.683Z,1.10
2022-09-10T04:48:35.379Z,0.90
2022-09-10T04:51:16.023Z,0.97
2022-09-10T04:53:45.775Z,0.87
2022-09-10T04:56:13.446Z,1.10
2022-09-10T04:58:41.643Z,1.07
2022-09-10T05:01:09.983Z,1.10
2022-09-10T05:03:38.360Z,1.00
2022-09-10T05:06:06.117Z,1.03
2022-09-10T05:08:33.760Z,0.93
2022-09-10T05:11:02.931Z,0.90
2022-09-10T05:13:31.745Z,1.07
2022-09-10T05:15:59.377Z,0.90
2022-09-10T05:18:27.162Z,0.80
2022-09-10T05:20:54.920Z,1.53
2022-09-10T05:23:23.774Z,1.03
2022-09-10T05:25:51.960Z,1.00
2022-09-10T05:28:21.973Z,1.33
2022-09-10T05:30:51.655Z,1.00
2022-09-10T05:33:19.090Z,0.87
2022-09-10T05:35:49.114Z,0.67
2022-09-10T05:38:17.831Z,1.00
2022-09-10T05:40:45.724Z,1.17
2022-09-10T05:43:14.026Z,1.23
2022-09-10T05:45:41.425Z,1.10
2022-09-10T05:48:09.242Z,0.90
2022-09-10T05:50:38.508Z,0.83
2022-09-10T05:53:06.388Z,1.00
2022-09-10T05:55:33.979Z,1.00
2022-09-10T05:58:01.244Z,0.87
2022-09-10T06:00:29.632Z,1.10
2022-09-10T06:02:57.565Z,0.80
2022-09-10T06:05:25.987Z,0.80
2022-09-10T06:07:53.725Z,0.90
2022-09-10T06:10:21.277Z,0.70
2022-09-10T06:12:52.061Z,1.00
2022-09-10T06:15:21.247Z,1.10
2022-09-10T06:17:48.931Z,0.60
2022-09-10T06:20:17.221Z,0.83
2022-09-10T06:22:45.283Z,1.17
2022-09-10T06:25:12.644Z,0.90
2022-09-10T06:27:41.630Z,0.87
2022-09-10T06:30:09.121Z,0.90
2022-09-10T06:32:38.107Z,0.80
2022-09-10T06:35:06.393Z,0.87
2022-09-10T06:37:34.457Z,1.00
2022-09-10T06:40:03.325Z,0.73
2022-09-10T06:42:32.210Z,0.90
2022-09-10T06:45:00.423Z,0.80
2022-09-10T06:48:18.750Z,0.83
2022-09-10T06:50:14.994Z,1.10
2022-09-10T06:52:42.622Z,0.70
2022-09-10T06:55:11.042Z,1.00
2022-09-10T06:57:40.077Z,1.00
2022-09-10T07:00:08.313Z,0.87
2022-09-10T07:02:36.728Z,0.87
2022-09-10T07:05:04.591Z,0.80
2022-09-10T07:07:32.201Z,0.60
2022-09-10T07:10:01.425Z,0.93
2022-09-10T07:12:29.027Z,0.73
2022-09-10T07:14:56.633Z,0.90
2022-09-10T07:17:27.657Z,0.70
2022-09-10T07:19:56.790Z,0.87
2022-09-10T07:22:24.338Z,0.80
2022-09-10T07:24:52.504Z,1.10
2022-09-10T07:27:21.746Z,0.73
2022-09-10T07:29:49.619Z,1.00
2022-09-10T07:32:16.475Z,0.80
2022-09-10T07:34:44.367Z,1.00
2022-09-10T07:37:12.063Z,1.10
2022-09-10T07:39:38.944Z,0.93
2022-09-10T07:42:06.950Z,1.23
2022-09-10T07:44:36.258Z,1.00
2022-09-10T07:47:04.449Z,1.30
2022-09-10T07:49:32.738Z,0.90
2022-09-10T07:52:00.419Z,1.10
2022-09-10T07:54:28.563Z,1.30
2022-09-10T07:56:56.716Z,0.90
2022-09-10T07:59:24.320Z,0.80
2022-09-10T08:01:52.492Z,1.10
2022-09-10T08:04:20.976Z,1.07
2022-09-10T08:06:48.484Z,1.13
2022-09-10T08:09:16.436Z,1.33
2022-09-10T08:11:43.392Z,0.93
2022-09-10T08:14:13.369Z,1.23
2022-09-10T08:16:44.321Z,1.37
2022-09-10T08:19:13.852Z,1.10
2022-09-10T08:21:42.242Z,1.00
2022-09-10T08:24:10.620Z,1.30
2022-09-10T08:26:38.945Z,0.87
2022-09-10T08:29:08.075Z,1.20
2022-09-10T08:31:35.774Z,1.10
2022-09-10T08:34:04.202Z,0.80
2022-09-10T08:36:33.147Z,0.90
2022-09-10T08:39:06.295Z,1.10
2022-09-10T08:41:39.325Z,0.77
2022-09-10T08:44:10.299Z,1.10
2022-09-10T08:46:48.722Z,1.50
2022-09-10T08:49:17.559Z,1.00
2022-09-10T08:52:13.306Z,1.70
2022-09-10T08:54:50.135Z,1.10
2022-09-10T08:57:50.227Z,1.30
2022-09-10T09:00:23.576Z,1.90
2022-09-10T09:03:14.821Z,1.20
2022-09-10T09:06:00.468Z,1.07
2022-09-10T09:08:31.178Z,1.10
2022-09-10T09:11:28.901Z,0.70
2022-09-10T09:14:18.251Z,1.40
2022-09-10T09:16:59.992Z,1.17
2022-09-10T09:19:34.784Z,0.80
2022-09-10T09:22:23.626Z,1.27
2022-09-10T09:25:09.892Z,1.07
2022-09-10T09:27:42.333Z,0.80
2022-09-10T09:30:35.632Z,0.90
2022-09-10T09:33:12.685Z,1.10
2022-09-10T09:36:00.369Z,0.90
2022-09-10T09:38:32.934Z,0.90
2022-09-10T09:41:26.681Z,1.10
2022-09-10T09:44:24.132Z,1.20
2022-09-10T09:46:51.784Z,1.00
2022-09-10T09:49:19.375Z,1.07
2022-09-10T09:51:48.871Z,1.00
2022-09-10T09:57:19.671Z,1.10
2022-09-10T09:59:49.497Z,1.17
2022-09-10T10:02:24.124Z,1.40
2022-09-10T10:05:04.520Z,1.20
2022-09-10T10:07:34.710Z,1.30
2022-09-10T10:10:06.083Z,1.50
2022-09-10T10:12:40.904Z,1.90
2022-09-10T10:15:36.818Z,2.60
2022-09-10T10:18:36.031Z,1.60
2022-09-10T10:21:16.747Z,1.50
2022-09-10T10:23:44.649Z,1.30
2022-09-10T10:26:33.116Z,1.40
2022-09-10T10:29:28.379Z,1.50
2022-09-10T10:31:57.819Z,1.40
2022-09-10T10:34:55.646Z,1.30
2022-09-10T10:38:01.049Z,1.40
2022-09-10T10:40:43.488Z,1.50
2022-09-10T10:43:32.815Z,1.73
2022-09-10T10:46:11.989Z,1.40
2022-09-10T10:49:06.102Z,1.37
2022-09-10T10:52:16.134Z,1.40
2022-09-10T10:54:59.527Z,1.00
2022-09-10T10:57:33.397Z,1.40
2022-09-10T11:00:07.633Z,1.33
2022-09-10T11:03:00.953Z,1.30
2022-09-10T11:05:36.027Z,1.23
2022-09-10T11:08:12.257Z,1.43
2022-09-10T11:10:48.188Z,1.50
2022-09-10T11:13:38.680Z,1.10
2022-09-10T11:16:16.958Z,1.23
2022-09-10T11:19:16.003Z,1.07
2022-09-10T11:21:52.605Z,0.87
2022-09-10T11:24:29.572Z,0.80
2022-09-10T11:27:14.558Z,1.10
2022-09-10T11:30:04.814Z,0.87
2022-09-10T11:33:05.010Z,1.03
2022-09-10T11:35:35.319Z,1.00
2022-09-10T11:38:26.011Z,0.90
2022-09-10T11:41:14.375Z,0.93
2022-09-10T11:44:23.674Z,1.00
2022-09-10T11:47:04.331Z,0.93
2022-09-10T11:49:48.284Z,0.87
2022-09-10T11:52:18.980Z,0.70
2022-09-10T11:54:47.514Z,1.10
2022-09-10T11:57:24.963Z,0.93
2022-09-10T11:59:55.447Z,0.77
2022-09-10T12:02:44.112Z,0.90
2022-09-10T12:05:38.179Z,0.70
2022-09-10T12:08:40.429Z,0.87
2022-09-10T12:11:20.484Z,0.63
2022-09-10T12:13:50.181Z,0.80
2022-09-10T12:16:38.069Z,0.87
2022-09-10T12:19:20.686Z,1.00
2022-09-10T12:21:53.170Z,1.50
2022-09-10T12:24:32.266Z,1.93
2022-09-10T12:27:01.794Z,1.13
2022-09-10T12:29:43.649Z,1.40
2022-09-10T12:32:20.224Z,2.13
2022-09-10T12:35:08.882Z,1.20
2022-09-10T12:37:38.200Z,1.40
2022-09-10T12:40:34.956Z,1.10
2022-09-10T12:43:44.531Z,1.20
2022-09-10T12:46:14.876Z,1.17
2022-09-10T12:48:48.955Z,1.17
2022-09-10T12:51:31.047Z,1.40
2022-09-10T12:54:04.376Z,1.70
2022-09-10T12:56:54.498Z,1.50
2022-09-10T12:59:30.481Z,1.70
2022-09-10T13:01:59.456Z,1.20
2022-09-10T13:04:33.460Z,1.50
2022-09-10T13:07:27.949Z,1.70
2022-09-10T13:10:04.040Z,1.73
2022-09-10T13:12:35.894Z,1.70
2022-09-10T13:15:05.111Z,1.50
2022-09-10T13:17:51.211Z,1.70
2022-09-10T13:20:21.734Z,1.90
2022-09-10T13:23:19.119Z,1.60
2022-09-10T13:25:47.960Z,1.53
2022-09-10T13:28:30.749Z,1.70
2022-09-10T13:31:08.791Z,1.60
2022-09-10T13:33:54.672Z,1.60
2022-09-10T13:36:42.644Z,1.90
2022-09-10T13:39:23.705Z,1.70
2022-09-10T13:41:57.733Z,2.10
2022-09-10T13:44:56.147Z,1.90
2022-09-10T13:47:46.255Z,1.87
2022-09-10T13:50:24.108Z,2.17
2022-09-10T13:52:55.082Z,1.70
2022-09-10T13:55:31.049Z,2.00
2022-09-10T13:58:18.071Z,1.90
2022-09-10T14:00:56.754Z,1.80
2022-09-10T14:03:36.651Z,2.10
2022-09-10T14:06:11.885Z,2.30
2022-09-10T14:08:50.784Z,1.97
2022-09-10T14:11:25.524Z,1.47
2022-09-10T14:13:59.450Z,1.70
2022-09-10T14:16:52.680Z,1.70
2022-09-10T14:19:43.489Z,1.50
2022-09-10T14:22:26.290Z,1.33
2022-09-10T14:25:01.967Z,1.70
2022-09-10T14:27:36.344Z,1.90
2022-09-10T14:30:30.290Z,2.03
2022-09-10T14:33:20.671Z,1.97
2022-09-10T14:35:51.546Z,2.20
2022-09-10T14:38:34.313Z,1.83
2022-09-10T14:41:08.718Z,1.77
2022-09-10T14:43:38.997Z,1.63
2022-09-10T14:46:12.402Z,1.73
2022-09-10T14:49:04.380Z,1.97
2022-09-10T14:51:32.082Z,1.80
2022-09-10T14:53:59.276Z,2.00
2022-09-10T14:56:32.782Z,2.00
2022-09-10T14:59:02.218Z,1.87
2022-09-10T15:01:30.525Z,1.97
2022-09-10T15:03:59.783Z,2.10
2022-09-10T15:06:27.578Z,1.80
2022-09-10T15:08:58.206Z,2.13
2022-09-10T15:11:28.097Z,2.00
2022-09-10T15:13:56.365Z,2.03
2022-09-10T15:16:24.684Z,2.10
2022-09-10T15:18:52.275Z,2.03
2022-09-10T15:21:20.085Z,2.10
2022-09-10T15:23:48.894Z,2.00
2022-09-10T15:26:16.478Z,1.97
2022-09-10T15:28:44.716Z,2.13
2022-09-10T15:31:12.987Z,1.97
2022-09-10T15:33:40.899Z,1.90
2022-09-10T15:36:08.762Z,1.70
2022-09-10T15:38:36.291Z,2.10
2022-09-10T15:41:14.292Z,1.83
2022-09-10T15:43:43.530Z,2.00
2022-09-10T15:46:13.475Z,2.03
2022-09-10T15:48:41.366Z,2.20
2022-09-10T15:51:17.211Z,1.67
2022-09-10T15:53:46.043Z,2.33
2022-09-10T15:56:14.770Z,1.90
2022-09-10T15:58:51.981Z,1.70
2022-09-10T16:01:20.195Z,1.63
2022-09-10T16:03:50.630Z,1.77
2022-09-10T16:06:20.124Z,1.60
2022-09-10T16:08:53.049Z,1.40
2022-09-10T16:11:21.266Z,1.60
2022-09-10T16:13:49.549Z,1.80
2022-09-10T16:16:22.781Z,1.60
2022-09-10T16:18:54.252Z,1.70
2022-09-10T16:21:32.205Z,1.77
2022-09-10T16:24:00.940Z,2.03
2022-09-10T16:26:31.428Z,1.80
2022-09-10T16:29:02.121Z,1.50
2022-09-10T16:31:37.000Z,1.60
2022-09-10T16:34:06.061Z,1.70
2022-09-10T16:36:35.252Z,1.63
2022-09-10T16:39:03.886Z,1.80
2022-09-10T16:41:33.094Z,1.83
2022-09-10T16:44:00.678Z,2.03
2022-09-10T16:46:28.190Z,1.40
2022-09-10T16:49:01.547Z,1.27
2022-09-10T16:51:29.233Z,1.50
2022-09-10T16:54:02.920Z,1.80
2022-09-10T16:56:35.641Z,1.60
2022-09-10T16:59:04.240Z,1.50
2022-09-10T17:01:31.894Z,1.20
2022-09-10T17:04:00.866Z,1.70
2022-09-10T17:06:30.832Z,1.43
2022-09-10T17:09:01.324Z,1.53
2022-09-10T17:11:31.921Z,1.77
2022-09-10T17:14:01.489Z,2.03
2022-09-10T17:16:40.882Z,1.77
2022-09-10T17:19:14.725Z,1.80
2022-09-10T17:21:45.261Z,1.70
2022-09-10T17:24:13.624Z,1.97
2022-09-10T17:26:41.653Z,2.17
2022-09-10T17:29:12.705Z,6.90
2022-09-10T17:31:41.985Z,2.40
2022-09-10T17:34:13.192Z,1.90
2022-09-10T17:36:42.995Z,2.00
2022-09-10T17:39:11.608Z,2.30
2022-09-10T17:41:40.156Z,3.07
2022-09-10T17:44:09.555Z,2.93
2022-09-10T17:46:37.746Z,2.90
2022-09-10T17:49:05.846Z,3.30
2022-09-10T17:51:34.767Z,2.20
2022-09-10T17:54:03.403Z,3.60
2022-09-10T17:56:32.178Z,3.70
2022-09-10T17:59:02.601Z,3.20
2022-09-10T18:01:34.029Z,1.87
2022-09-10T18:04:04.585Z,1.80
2022-09-10T18:06:35.506Z,2.10
2022-09-10T18:09:02.858Z,2.30
2022-09-10T18:11:33.362Z,2.67
2022-09-10T18:14:03.478Z,4.07
2022-09-10T18:16:34.084Z,5.10
2022-09-10T18:19:12.876Z,5.20
2022-09-10T18:21:42.433Z,6.43
2022-09-10T18:24:23.655Z,4.43
2022-09-10T18:26:54.647Z,5.03
2022-09-10T18:29:30.036Z,4.70
2022-09-10T18:32:00.841Z,4.73
2022-09-10T18:34:31.347Z,3.77
2022-09-10T18:37:01.383Z,3.93
2022-09-10T18:39:31.246Z,4.00
2022-09-10T18:42:00.962Z,3.40
2022-09-10T18:44:33.256Z,6.27
2022-09-10T18:47:03.179Z,12.20
2022-09-10T18:49:31.586Z,11.27
2022-09-10T18:52:00.041Z,14.40
2022-09-10T18:54:31.817Z,12.83
2022-09-10T18:56:59.501Z,12.37
2022-09-10T18:59:27.795Z,10.07
2022-09-10T19:01:56.789Z,9.63
2022-09-10T19:04:26.953Z,8.80
2022-09-10T19:06:56.907Z,6.83
2022-09-10T19:09:28.911Z,6.43
2022-09-10T19:11:59.179Z,4.50
2022-09-10T19:14:32.233Z,7.73
2022-09-10T19:17:01.780Z,6.80
2022-09-10T19:19:32.535Z,11.43
2022-09-10T19:22:06.196Z,14.80
2022-09-10T19:24:54.860Z,12.67
2022-09-10T19:27:25.450Z,6.67
2022-09-10T19:29:53.972Z,5.60
2022-09-10T19:32:22.424Z,3.20
2022-09-10T19:34:51.863Z,3.10
2022-09-10T19:37:20.896Z,5.00
2022-09-10T19:39:49.382Z,5.33
2022-09-10T19:42:17.461Z,7.13
2022-09-10T19:44:45.690Z,7.70
2022-09-10T19:47:13.946Z,8.07
2022-09-10T19:49:41.685Z,7.23
2022-09-10T19:52:11.034Z,6.63
2022-09-10T19:54:37.950Z,8.67
2022-09-10T19:57:06.232Z,5.97
2022-09-10T19:59:35.612Z,3.90
2022-09-10T20:02:03.292Z,4.53
2022-09-10T20:04:33.099Z,3.90
2022-09-10T20:07:01.562Z,4.33
2022-09-10T20:09:29.218Z,3.67
2022-09-10T20:11:56.778Z,3.30
2022-09-10T20:14:25.479Z,3.10
2022-09-10T20:16:54.740Z,2.27
2022-09-10T20:19:23.003Z,2.53
2022-09-10T20:21:51.562Z,2.60
2022-09-10T20:24:19.329Z,2.47
2022-09-10T20:26:49.088Z,2.50
2022-09-10T20:29:18.575Z,2.37
2022-09-10T20:31:47.133Z,2.57
2022-09-10T20:34:17.911Z,2.87
2022-09-10T20:36:45.782Z,2.37
2022-09-10T20:39:15.111Z,2.27
2022-09-10T20:41:43.474Z,2.70
2022-09-10T20:44:14.176Z,2.30
2022-09-10T20:46:43.124Z,2.10
2022-09-10T20:49:11.869Z,2.00
2022-09-10T20:51:40.547Z,1.90
2022-09-10T20:54:12.506Z,2.00
2022-09-10T20:56:41.265Z,1.90
2022-09-10T20:59:11.092Z,1.90
2022-09-10T21:01:39.041Z,1.90
2022-09-10T21:04:06.971Z,1.90
2022-09-10T21:06:35.266Z,2.20
2022-09-10T21:09:03.730Z,2.03
2022-09-10T21:11:34.897Z,1.53
2022-09-10T21:14:05.457Z,1.50
2022-09-10T21:16:36.616Z,2.00
2022-09-10T21:19:09.927Z,2.43
2022-09-10T21:21:39.603Z,2.43
2022-09-10T21:24:10.934Z,2.03
2022-09-10T21:26:40.518Z,2.10
2022-09-10T21:29:13.364Z,1.80
2022-09-10T21:31:41.249Z,2.03
2022-09-10T21:34:09.366Z,1.63
2022-09-10T21:36:39.093Z,1.70
2022-09-10T21:39:11.481Z,1.90
2022-09-10T21:41:41.495Z,1.70
2022-09-10T21:44:14.254Z,1.60
2022-09-10T21:46:43.691Z,1.17
2022-09-10T21:49:13.025Z,1.10
2022-09-10T21:51:41.196Z,1.70
2022-09-10T21:54:20.578Z,1.53
2022-09-10T21:56:49.639Z,1.87
2022-09-10T21:59:17.202Z,1.40
2022-09-10T22:01:47.232Z,1.03
2022-09-10T22:04:20.221Z,1.60
2022-09-10T22:06:54.482Z,1.00
2022-09-10T22:09:22.504Z,1.20
2022-09-10T22:11:54.127Z,1.20
2022-09-10T22:14:24.376Z,1.70
2022-09-10T22:16:52.353Z,1.50
2022-09-10T22:19:24.804Z,1.40
2022-09-10T22:21:57.400Z,1.30
2022-09-10T22:24:26.990Z,1.30
2022-09-10T22:26:54.666Z,1.27
2022-09-10T22:29:21.722Z,1.33
2022-09-10T22:31:52.374Z,1.20
2022-09-10T22:34:20.824Z,1.43
2022-09-10T22:36:52.183Z,1.40
2022-09-10T22:39:22.252Z,1.40
2022-09-10T22:41:51.140Z,1.60
2022-09-10T22:44:20.110Z,1.50
2022-09-10T22:46:47.388Z,1.60
2022-09-10T22:49:19.859Z,1.20
2022-09-10T22:51:48.995Z,1.40
2022-09-10T22:54:17.291Z,1.50
2022-09-10T22:56:45.708Z,1.57
2022-09-10T22:59:14.460Z,1.67
2022-09-10T23:01:43.819Z,1.10
2022-09-10T23:04:12.462Z,1.40
2022-09-10T23:06:41.510Z,1.30
2022-09-10T23:09:12.529Z,1.40
2022-09-10T23:11:40.435Z,1.53
2022-09-10T23:14:18.015Z,1.33
2022-09-10T23:16:48.895Z,1.23
2022-09-10T23:19:20.454Z,1.37
2022-09-10T23:21:52.302Z,1.13
2022-09-10T23:24:26.307Z,1.30
2022-09-10T23:26:53.982Z,1.20
2022-09-10T23:29:23.064Z,1.37
2022-09-10T23:31:53.459Z,1.23
2022-09-10T23:34:22.271Z,1.20
2022-09-10T23:36:50.335Z,1.40
2022-09-10T23:39:20.392Z,1.30
2022-09-10T23:41:49.910Z,1.20
2022-09-10T23:44:18.063Z,1.27
2022-09-10T23:46:45.807Z,1.20
2022-09-10T23:49:13.043Z,1.13
2022-09-10T23:51:41.428Z,1.10
2022-09-10T23:54:10.646Z,1.27
2022-09-10T23:56:37.897Z,1.33
2022-09-10T23:59:04.948Z,1.57
